sensor_id;sensor_type;location;lat;lon;timestamp;temperature;humidity
44121;DHT22;29783;52.504;13.478;2023-03-05T00:01:32;3.90;76.00
44121;DHT22;29783;52.504;13.478;2023-03-05T00:03:58;3.80;76.70
44121;DHT22;29783;52.504;13.478;2023-03-05T00:06:27;3.80;77.80
44121;DHT22;29783;52.504;13.478;2023-03-05T00:08:54;3.70;79.00
44121;DHT22;29783;52.504;13.478;2023-03-05T00:11:22;3.60;79.80
44121;DHT22;29783;52.504;13.478;2023-03-05T00:13:53;3.60;80.30
44121;DHT22;29783;52.504;13.478;2023-03-05T00:16:19;3.60;80.70
44121;DHT22;29783;52.504;13.478;2023-03-05T00:18:45;3.40;81.90
44121;DHT22;29783;52.504;13.478;2023-03-05T00:21:20;3.40;82.80
44121;DHT22;29783;52.504;13.478;2023-03-05T00:23:50;3.30;83.20
44121;DHT22;29783;52.504;13.478;2023-03-05T00:26:21;3.30;84.40
44121;DHT22;29783;52.504;13.478;2023-03-05T00:28:47;3.10;85.50
44121;DHT22;29783;52.504;13.478;2023-03-05T00:31:20;3.10;86.00
44121;DHT22;29783;52.504;13.478;2023-03-05T00:33:53;3.00;86.60
44121;DHT22;29783;52.504;13.478;2023-03-05T00:36:19;2.90;86.50
44121;DHT22;29783;52.504;13.478;2023-03-05T00:38:45;2.90;87.20
44121;DHT22;29783;52.504;13.478;2023-03-05T00:41:11;2.90;87.60
44121;DHT22;29783;52.504;13.478;2023-03-05T00:43:37;2.80;87.80
44121;DHT22;29783;52.504;13.478;2023-03-05T00:46:03;2.80;88.10
44121;DHT22;29783;52.504;13.478;2023-03-05T00:48:29;2.80;88.30
44121;DHT22;29783;52.504;13.478;2023-03-05T00:50:54;2.70;88.70
44121;DHT22;29783;52.504;13.478;2023-03-05T00:53:21;2.70;88.20
44121;DHT22;29783;52.504;13.478;2023-03-05T00:55:47;2.70;88.20
44121;DHT22;29783;52.504;13.478;2023-03-05T00:58:13;2.70;88.00
44121;DHT22;29783;52.504;13.478;2023-03-05T01:00:39;2.60;87.80
44121;DHT22;29783;52.504;13.478;2023-03-05T01:03:05;2.60;87.80
44121;DHT22;29783;52.504;13.478;2023-03-05T01:05:31;2.60;87.80
44121;DHT22;29783;52.504;13.478;2023-03-05T01:07:57;2.70;87.10
44121;DHT22;29783;52.504;13.478;2023-03-05T01:10:23;2.70;86.80
44121;DHT22;29783;52.504;13.478;2023-03-05T01:12:55;2.70;85.80
44121;DHT22;29783;52.504;13.478;2023-03-05T01:15:22;2.70;85.90
44121;DHT22;29783;52.504;13.478;2023-03-05T01:17:48;2.70;84.50
44121;DHT22;29783;52.504;13.478;2023-03-05T01:20:16;2.60;83.90
44121;DHT22;29783;52.504;13.478;2023-03-05T01:22:42;2.60;83.70
44121;DHT22;29783;52.504;13.478;2023-03-05T01:25:09;2.60;83.90
44121;DHT22;29783;52.504;13.478;2023-03-05T01:27:34;2.70;83.10
44121;DHT22;29783;52.504;13.478;2023-03-05T01:30:00;2.70;82.80
44121;DHT22;29783;52.504;13.478;2023-03-05T01:32:26;2.70;82.40
44121;DHT22;29783;52.504;13.478;2023-03-05T01:34:52;2.70;81.40
44121;DHT22;29783;52.504;13.478;2023-03-05T01:37:18;2.80;81.30
44121;DHT22;29783;52.504;13.478;2023-03-05T01:39:44;2.80;80.40
44121;DHT22;29783;52.504;13.478;2023-03-05T01:42:09;2.80;79.00
44121;DHT22;29783;52.504;13.478;2023-03-05T01:44:35;2.80;78.40
44121;DHT22;29783;52.504;13.478;2023-03-05T01:47:01;2.80;77.90
44121;DHT22;29783;52.504;13.478;2023-03-05T01:51:58;2.80;77.70
44121;DHT22;29783;52.504;13.478;2023-03-05T01:54:30;2.80;77.20
44121;DHT22;29783;52.504;13.478;2023-03-05T01:57:01;2.80;76.50
44121;DHT22;29783;52.504;13.478;2023-03-05T01:59:29;2.70;75.70
44121;DHT22;29783;52.504;13.478;2023-03-05T02:01:56;2.70;75.90
44121;DHT22;29783;52.504;13.478;2023-03-05T02:04:29;2.70;75.10
44121;DHT22;29783;52.504;13.478;2023-03-05T02:06:56;2.70;74.80
44121;DHT22;29783;52.504;13.478;2023-03-05T02:09:24;2.60;74.60
44121;DHT22;29783;52.504;13.478;2023-03-05T02:11:51;2.60;74.20
44121;DHT22;29783;52.504;13.478;2023-03-05T02:14:17;2.60;72.60
44121;DHT22;29783;52.504;13.478;2023-03-05T02:16:45;2.50;72.70
44121;DHT22;29783;52.504;13.478;2023-03-05T02:19:11;2.50;72.00
44121;DHT22;29783;52.504;13.478;2023-03-05T02:21:47;2.60;72.20
44121;DHT22;29783;52.504;13.478;2023-03-05T02:24:15;2.50;71.30
44121;DHT22;29783;52.504;13.478;2023-03-05T02:26:42;2.50;70.50
44121;DHT22;29783;52.504;13.478;2023-03-05T02:29:16;2.50;69.90
44121;DHT22;29783;52.504;13.478;2023-03-05T02:31:43;2.40;70.00
44121;DHT22;29783;52.504;13.478;2023-03-05T02:34:10;2.40;70.50
44121;DHT22;29783;52.504;13.478;2023-03-05T02:36:35;2.40;70.30
44121;DHT22;29783;52.504;13.478;2023-03-05T02:39:02;2.40;70.10
44121;DHT22;29783;52.504;13.478;2023-03-05T02:41:28;2.40;69.60
44121;DHT22;29783;52.504;13.478;2023-03-05T02:43:53;2.50;69.30
44121;DHT22;29783;52.504;13.478;2023-03-05T02:46:19;2.40;69.20
44121;DHT22;29783;52.504;13.478;2023-03-05T02:48:45;2.40;69.40
44121;DHT22;29783;52.504;13.478;2023-03-05T02:51:11;2.40;69.50
44121;DHT22;29783;52.504;13.478;2023-03-05T02:53:37;2.40;69.60
44121;DHT22;29783;52.504;13.478;2023-03-05T02:56:02;2.40;69.80
44121;DHT22;29783;52.504;13.478;2023-03-05T02:58:29;2.40;70.00
44121;DHT22;29783;52.504;13.478;2023-03-05T03:00:55;2.30;70.70
44121;DHT22;29783;52.504;13.478;2023-03-05T03:03:21;2.40;70.40
44121;DHT22;29783;52.504;13.478;2023-03-05T03:05:46;2.40;70.80
44121;DHT22;29783;52.504;13.478;2023-03-05T03:08:12;2.40;70.70
44121;DHT22;29783;52.504;13.478;2023-03-05T03:10:39;2.40;70.80
44121;DHT22;29783;52.504;13.478;2023-03-05T03:13:05;2.40;70.50
44121;DHT22;29783;52.504;13.478;2023-03-05T03:15:31;2.40;70.10
44121;DHT22;29783;52.504;13.478;2023-03-05T03:17:57;2.40;70.50
44121;DHT22;29783;52.504;13.478;2023-03-05T03:20:23;2.50;70.50
44121;DHT22;29783;52.504;13.478;2023-03-05T03:22:49;2.50;70.10
44121;DHT22;29783;52.504;13.478;2023-03-05T03:25:20;2.30;70.50
44121;DHT22;29783;52.504;13.478;2023-03-05T03:27:47;2.40;70.40
44121;DHT22;29783;52.504;13.478;2023-03-05T03:30:14;2.40;70.80
44121;DHT22;29783;52.504;13.478;2023-03-05T03:32:40;2.40;70.70
44121;DHT22;29783;52.504;13.478;2023-03-05T03:35:21;2.40;70.20
44121;DHT22;29783;52.504;13.478;2023-03-05T03:37:47;2.40;70.50
44121;DHT22;29783;52.504;13.478;2023-03-05T03:40:13;2.40;70.70
44121;DHT22;29783;52.504;13.478;2023-03-05T03:42:39;2.40;70.60
44121;DHT22;29783;52.504;13.478;2023-03-05T03:45:05;2.40;70.70
44121;DHT22;29783;52.504;13.478;2023-03-05T03:47:31;2.40;70.50
44121;DHT22;29783;52.504;13.478;2023-03-05T03:49:57;2.40;70.40
44121;DHT22;29783;52.504;13.478;2023-03-05T03:52:23;2.40;70.90
44121;DHT22;29783;52.504;13.478;2023-03-05T03:54:49;2.40;71.00
44121;DHT22;29783;52.504;13.478;2023-03-05T03:57:17;2.40;71.00
44121;DHT22;29783;52.504;13.478;2023-03-05T03:59:43;2.30;71.20
44121;DHT22;29783;52.504;13.478;2023-03-05T04:02:10;2.40;71.30
44121;DHT22;29783;52.504;13.478;2023-03-05T04:04:36;2.40;71.30
44121;DHT22;29783;52.504;13.478;2023-03-05T04:07:02;2.30;71.90
44121;DHT22;29783;52.504;13.478;2023-03-05T04:09:28;2.30;72.40
44121;DHT22;29783;52.504;13.478;2023-03-05T04:11:53;2.30;72.90
44121;DHT22;29783;52.504;13.478;2023-03-05T04:14:20;2.20;73.30
44121;DHT22;29783;52.504;13.478;2023-03-05T04:16:46;2.20;73.60
44121;DHT22;29783;52.504;13.478;2023-03-05T04:19:12;2.20;73.70
44121;DHT22;29783;52.504;13.478;2023-03-05T04:21:38;2.10;74.10
44121;DHT22;29783;52.504;13.478;2023-03-05T04:24:04;2.00;74.80
44121;DHT22;29783;52.504;13.478;2023-03-05T04:26:31;1.90;75.10
44121;DHT22;29783;52.504;13.478;2023-03-05T04:28:57;1.90;75.70
44121;DHT22;29783;52.504;13.478;2023-03-05T04:31:22;1.90;75.70
44121;DHT22;29783;52.504;13.478;2023-03-05T04:33:48;1.90;75.80
44121;DHT22;29783;52.504;13.478;2023-03-05T04:36:14;1.90;76.10
44121;DHT22;29783;52.504;13.478;2023-03-05T04:38:40;1.90;76.20
44121;DHT22;29783;52.504;13.478;2023-03-05T04:41:05;1.80;76.50
44121;DHT22;29783;52.504;13.478;2023-03-05T04:43:31;1.80;76.90
44121;DHT22;29783;52.504;13.478;2023-03-05T04:45:57;1.70;77.40
44121;DHT22;29783;52.504;13.478;2023-03-05T04:48:22;1.60;77.60
44121;DHT22;29783;52.504;13.478;2023-03-05T04:50:48;1.50;78.00
44121;DHT22;29783;52.504;13.478;2023-03-05T04:53:14;1.50;78.30
44121;DHT22;29783;52.504;13.478;2023-03-05T04:55:40;1.60;78.30
44121;DHT22;29783;52.504;13.478;2023-03-05T04:58:06;1.60;78.40
44121;DHT22;29783;52.504;13.478;2023-03-05T05:00:31;1.50;78.50
44121;DHT22;29783;52.504;13.478;2023-03-05T05:02:57;1.50;78.80
44121;DHT22;29783;52.504;13.478;2023-03-05T05:05:25;1.50;78.80
44121;DHT22;29783;52.504;13.478;2023-03-05T05:07:55;1.60;78.70
44121;DHT22;29783;52.504;13.478;2023-03-05T05:10:22;1.60;78.80
44121;DHT22;29783;52.504;13.478;2023-03-05T05:12:48;1.50;78.80
44121;DHT22;29783;52.504;13.478;2023-03-05T05:15:14;1.60;78.90
44121;DHT22;29783;52.504;13.478;2023-03-05T05:17:39;1.50;79.10
44121;DHT22;29783;52.504;13.478;2023-03-05T05:20:06;1.50;79.40
44121;DHT22;29783;52.504;13.478;2023-03-05T05:22:33;1.50;79.60
44121;DHT22;29783;52.504;13.478;2023-03-05T05:24:59;1.50;79.70
44121;DHT22;29783;52.504;13.478;2023-03-05T05:27:25;1.40;80.00
44121;DHT22;29783;52.504;13.478;2023-03-05T05:29:51;1.50;80.00
44121;DHT22;29783;52.504;13.478;2023-03-05T05:32:18;1.40;80.10
44121;DHT22;29783;52.504;13.478;2023-03-05T05:34:44;1.40;80.40
44121;DHT22;29783;52.504;13.478;2023-03-05T05:37:10;1.40;80.20
44121;DHT22;29783;52.504;13.478;2023-03-05T05:39:36;1.40;80.60
44121;DHT22;29783;52.504;13.478;2023-03-05T05:42:02;1.40;80.40
44121;DHT22;29783;52.504;13.478;2023-03-05T05:44:27;1.40;80.80
44121;DHT22;29783;52.504;13.478;2023-03-05T05:46:53;1.50;80.70
44121;DHT22;29783;52.504;13.478;2023-03-05T05:49:19;1.40;80.80
44121;DHT22;29783;52.504;13.478;2023-03-05T05:51:45;1.30;81.00
44121;DHT22;29783;52.504;13.478;2023-03-05T05:54:14;1.30;81.60
44121;DHT22;29783;52.504;13.478;2023-03-05T05:56:41;1.30;81.60
44121;DHT22;29783;52.504;13.478;2023-03-05T05:59:07;1.40;81.70
44121;DHT22;29783;52.504;13.478;2023-03-05T06:01:33;1.40;81.50
44121;DHT22;29783;52.504;13.478;2023-03-05T06:03:59;1.50;81.20
44121;DHT22;29783;52.504;13.478;2023-03-05T06:09:47;1.60;80.90
44121;DHT22;29783;52.504;13.478;2023-03-05T06:12:13;1.70;80.70
44121;DHT22;29783;52.504;13.478;2023-03-05T06:14:39;1.70;80.70
44121;DHT22;29783;52.504;13.478;2023-03-05T06:17:04;1.70;80.90
44121;DHT22;29783;52.504;13.478;2023-03-05T06:19:31;1.70;80.80
44121;DHT22;29783;52.504;13.478;2023-03-05T06:21:56;1.70;80.80
44121;DHT22;29783;52.504;13.478;2023-03-05T06:24:22;1.80;80.60
44121;DHT22;29783;52.504;13.478;2023-03-05T06:26:48;1.80;80.60
44121;DHT22;29783;52.504;13.478;2023-03-05T06:29:14;1.80;80.60
44121;DHT22;29783;52.504;13.478;2023-03-05T06:31:40;1.80;80.50
44121;DHT22;29783;52.504;13.478;2023-03-05T06:34:28;1.80;80.50
44121;DHT22;29783;52.504;13.478;2023-03-05T06:36:54;1.80;80.60
44121;DHT22;29783;52.504;13.478;2023-03-05T06:39:19;2.00;80.30
44121;DHT22;29783;52.504;13.478;2023-03-05T06:41:49;2.00;80.00
44121;DHT22;29783;52.504;13.478;2023-03-05T06:44:14;2.10;79.90
44121;DHT22;29783;52.504;13.478;2023-03-05T06:46:40;2.20;79.70
44121;DHT22;29783;52.504;13.478;2023-03-05T06:49:06;2.30;79.60
44121;DHT22;29783;52.504;13.478;2023-03-05T06:51:36;2.40;78.80
44121;DHT22;29783;52.504;13.478;2023-03-05T06:54:05;2.40;78.90
44121;DHT22;29783;52.504;13.478;2023-03-05T06:56:33;2.50;78.70
44121;DHT22;29783;52.504;13.478;2023-03-05T06:58:59;2.40;78.50
44121;DHT22;29783;52.504;13.478;2023-03-05T07:01:25;2.40;78.60
44121;DHT22;29783;52.504;13.478;2023-03-05T07:03:53;2.40;78.80
44121;DHT22;29783;52.504;13.478;2023-03-05T07:06:19;2.40;78.30
44121;DHT22;29783;52.504;13.478;2023-03-05T07:08:45;2.50;78.30
44121;DHT22;29783;52.504;13.478;2023-03-05T07:11:13;2.60;77.90
44121;DHT22;29783;52.504;13.478;2023-03-05T07:13:40;2.60;77.80
44121;DHT22;29783;52.504;13.478;2023-03-05T07:16:08;2.80;77.20
44121;DHT22;29783;52.504;13.478;2023-03-05T07:18:34;2.90;76.20
44121;DHT22;29783;52.504;13.478;2023-03-05T07:21:04;3.00;75.90
44121;DHT22;29783;52.504;13.478;2023-03-05T07:23:30;3.00;75.20
44121;DHT22;29783;52.504;13.478;2023-03-05T07:25:59;3.00;74.90
44121;DHT22;29783;52.504;13.478;2023-03-05T07:28:25;2.90;74.70
44121;DHT22;29783;52.504;13.478;2023-03-05T07:30:59;2.80;73.90
44121;DHT22;29783;52.504;13.478;2023-03-05T07:33:25;2.90;74.70
44121;DHT22;29783;52.504;13.478;2023-03-05T07:35:51;2.80;74.30
44121;DHT22;29783;52.504;13.478;2023-03-05T07:38:17;2.80;74.60
44121;DHT22;29783;52.504;13.478;2023-03-05T07:40:42;2.90;74.40
44121;DHT22;29783;52.504;13.478;2023-03-05T07:43:08;2.90;74.60
44121;DHT22;29783;52.504;13.478;2023-03-05T07:45:38;3.00;73.60
44121;DHT22;29783;52.504;13.478;2023-03-05T07:48:04;2.80;73.50
44121;DHT22;29783;52.504;13.478;2023-03-05T07:50:30;2.90;73.60
44121;DHT22;29783;52.504;13.478;2023-03-05T07:52:57;3.00;72.90
44121;DHT22;29783;52.504;13.478;2023-03-05T07:55:24;3.00;73.10
44121;DHT22;29783;52.504;13.478;2023-03-05T07:57:49;3.00;73.50
44121;DHT22;29783;52.504;13.478;2023-03-05T08:00:16;3.10;72.60
44121;DHT22;29783;52.504;13.478;2023-03-05T08:02:42;3.00;73.30
44121;DHT22;29783;52.504;13.478;2023-03-05T08:05:08;3.00;72.40
44121;DHT22;29783;52.504;13.478;2023-03-05T08:07:33;2.90;73.10
44121;DHT22;29783;52.504;13.478;2023-03-05T08:09:59;3.00;73.10
44121;DHT22;29783;52.504;13.478;2023-03-05T08:12:25;3.00;72.80
44121;DHT22;29783;52.504;13.478;2023-03-05T08:14:51;3.00;72.60
44121;DHT22;29783;52.504;13.478;2023-03-05T08:17:17;3.10;72.40
44121;DHT22;29783;52.504;13.478;2023-03-05T08:19:42;3.10;72.40
44121;DHT22;29783;52.504;13.478;2023-03-05T08:22:08;3.30;71.60
44121;DHT22;29783;52.504;13.478;2023-03-05T08:24:34;3.30;71.00
44121;DHT22;29783;52.504;13.478;2023-03-05T08:27:00;3.30;70.50
44121;DHT22;29783;52.504;13.478;2023-03-05T08:29:26;3.30;70.70
44121;DHT22;29783;52.504;13.478;2023-03-05T08:31:52;3.30;70.70
44121;DHT22;29783;52.504;13.478;2023-03-05T08:34:20;3.40;69.50
44121;DHT22;29783;52.504;13.478;2023-03-05T08:36:46;3.50;69.00
44121;DHT22;29783;52.504;13.478;2023-03-05T08:39:12;3.40;68.10
44121;DHT22;29783;52.504;13.478;2023-03-05T08:41:38;3.60;68.30
44121;DHT22;29783;52.504;13.478;2023-03-05T08:44:03;3.60;67.80
44121;DHT22;29783;52.504;13.478;2023-03-05T08:46:29;3.70;67.90
44121;DHT22;29783;52.504;13.478;2023-03-05T08:49:01;3.50;67.20
44121;DHT22;29783;52.504;13.478;2023-03-05T08:51:27;3.60;66.10
44121;DHT22;29783;52.504;13.478;2023-03-05T08:53:54;3.60;66.20
44121;DHT22;29783;52.504;13.478;2023-03-05T08:56:20;3.50;66.70
44121;DHT22;29783;52.504;13.478;2023-03-05T08:58:46;3.60;66.20
44121;DHT22;29783;52.504;13.478;2023-03-05T09:01:13;3.70;65.90
44121;DHT22;29783;52.504;13.478;2023-03-05T09:03:39;3.70;64.70
44121;DHT22;29783;52.504;13.478;2023-03-05T09:06:08;3.80;65.00
44121;DHT22;29783;52.504;13.478;2023-03-05T09:08:34;3.80;64.00
44121;DHT22;29783;52.504;13.478;2023-03-05T09:11:02;3.80;64.60
44121;DHT22;29783;52.504;13.478;2023-03-05T09:13:28;3.90;63.20
44121;DHT22;29783;52.504;13.478;2023-03-05T09:15:55;3.80;63.30
44121;DHT22;29783;52.504;13.478;2023-03-05T09:18:22;4.00;63.30
44121;DHT22;29783;52.504;13.478;2023-03-05T09:20:47;4.20;63.20
44121;DHT22;29783;52.504;13.478;2023-03-05T09:23:13;4.30;62.10
44121;DHT22;29783;52.504;13.478;2023-03-05T09:25:39;4.40;61.10
44121;DHT22;29783;52.504;13.478;2023-03-05T09:28:06;4.40;60.50
44121;DHT22;29783;52.504;13.478;2023-03-05T09:30:32;4.40;59.50
44121;DHT22;29783;52.504;13.478;2023-03-05T09:33:02;4.30;60.10
44121;DHT22;29783;52.504;13.478;2023-03-05T09:35:28;4.50;59.90
44121;DHT22;29783;52.504;13.478;2023-03-05T09:37:54;4.30;58.90
44121;DHT22;29783;52.504;13.478;2023-03-05T09:40:21;4.20;58.70
44121;DHT22;29783;52.504;13.478;2023-03-05T09:42:59;4.20;59.10
44121;DHT22;29783;52.504;13.478;2023-03-05T09:45:31;4.00;60.40
44121;DHT22;29783;52.504;13.478;2023-03-05T09:50:51;4.10;59.90
44121;DHT22;29783;52.504;13.478;2023-03-05T09:53:44;4.10;60.70
44121;DHT22;29783;52.504;13.478;2023-03-05T09:56:14;3.90;61.20
44121;DHT22;29783;52.504;13.478;2023-03-05T09:58:52;3.90;62.10
44121;DHT22;29783;52.504;13.478;2023-03-05T10:01:39;4.10;61.60
44121;DHT22;29783;52.504;13.478;2023-03-05T10:04:13;4.10;61.40
44121;DHT22;29783;52.504;13.478;2023-03-05T10:06:48;4.20;61.40
44121;DHT22;29783;52.504;13.478;2023-03-05T10:12:09;4.50;59.70
44121;DHT22;29783;52.504;13.478;2023-03-05T10:14:38;4.70;59.70
44121;DHT22;29783;52.504;13.478;2023-03-05T10:17:38;4.70;59.00
44121;DHT22;29783;52.504;13.478;2023-03-05T10:20:25;4.70;59.80
44121;DHT22;29783;52.504;13.478;2023-03-05T10:42:14;4.40;59.30
44121;DHT22;29783;52.504;13.478;2023-03-05T10:44:50;4.20;60.50
44121;DHT22;29783;52.504;13.478;2023-03-05T10:47:24;4.10;61.30
44121;DHT22;29783;52.504;13.478;2023-03-05T10:49:54;4.10;62.50
44121;DHT22;29783;52.504;13.478;2023-03-05T10:54:49;4.00;65.10
44121;DHT22;29783;52.504;13.478;2023-03-05T10:57:19;4.10;66.10
44121;DHT22;29783;52.504;13.478;2023-03-05T11:00:30;4.20;65.10
44121;DHT22;29783;52.504;13.478;2023-03-05T11:13:50;4.20;62.70
44121;DHT22;29783;52.504;13.478;2023-03-05T11:16:32;4.20;63.40
44121;DHT22;29783;52.504;13.478;2023-03-05T11:19:27;4.30;62.90
44121;DHT22;29783;52.504;13.478;2023-03-05T11:22:24;4.30;63.70
44121;DHT22;29783;52.504;13.478;2023-03-05T11:27:44;4.30;63.60
44121;DHT22;29783;52.504;13.478;2023-03-05T11:35:36;4.30;65.50
44121;DHT22;29783;52.504;13.478;2023-03-05T11:38:04;4.30;64.80
44121;DHT22;29783;52.504;13.478;2023-03-05T11:40:32;4.40;64.10
44121;DHT22;29783;52.504;13.478;2023-03-05T11:43:03;4.50;64.10
44121;DHT22;29783;52.504;13.478;2023-03-05T11:48:58;4.90;62.40
44121;DHT22;29783;52.504;13.478;2023-03-05T11:51:43;4.90;61.90
44121;DHT22;29783;52.504;13.478;2023-03-05T11:54:15;4.70;63.10
44121;DHT22;29783;52.504;13.478;2023-03-05T11:56:45;5.00;61.70
44121;DHT22;29783;52.504;13.478;2023-03-05T11:59:17;4.80;61.80
44121;DHT22;29783;52.504;13.478;2023-03-05T12:01:47;5.10;61.70
44121;DHT22;29783;52.504;13.478;2023-03-05T12:04:14;5.30;61.20
44121;DHT22;29783;52.504;13.478;2023-03-05T12:07:14;4.90;64.00
44121;DHT22;29783;52.504;13.478;2023-03-05T12:09:46;4.90;65.30
44121;DHT22;29783;52.504;13.478;2023-03-05T12:17:43;4.40;65.20
44121;DHT22;29783;52.504;13.478;2023-03-05T12:20:21;4.40;65.10
44121;DHT22;29783;52.504;13.478;2023-03-05T12:22:49;4.80;64.50
44121;DHT22;29783;52.504;13.478;2023-03-05T12:25:45;5.10;62.80
44121;DHT22;29783;52.504;13.478;2023-03-05T12:31:36;5.40;62.60
44121;DHT22;29783;52.504;13.478;2023-03-05T12:34:34;5.80;60.10
44121;DHT22;29783;52.504;13.478;2023-03-05T12:37:01;5.90;58.70
44121;DHT22;29783;52.504;13.478;2023-03-05T12:52:57;6.00;53.60
44121;DHT22;29783;52.504;13.478;2023-03-05T12:55:23;5.70;53.80
44121;DHT22;29783;52.504;13.478;2023-03-05T12:57:52;5.60;54.90
44121;DHT22;29783;52.504;13.478;2023-03-05T13:00:27;5.40;55.80
44121;DHT22;29783;52.504;13.478;2023-03-05T13:02:58;5.50;54.80
44121;DHT22;29783;52.504;13.478;2023-03-05T13:05:26;5.50;54.90
44121;DHT22;29783;52.504;13.478;2023-03-05T13:07:52;5.40;55.00
44121;DHT22;29783;52.504;13.478;2023-03-05T13:10:26;5.30;54.80
44121;DHT22;29783;52.504;13.478;2023-03-05T13:12:52;5.40;55.00
44121;DHT22;29783;52.504;13.478;2023-03-05T13:15:18;5.60;53.80
44121;DHT22;29783;52.504;13.478;2023-03-05T13:17:53;5.50;53.20
44121;DHT22;29783;52.504;13.478;2023-03-05T13:20:42;5.30;53.70
44121;DHT22;29783;52.504;13.478;2023-03-05T13:23:14;5.50;53.50
44121;DHT22;29783;52.504;13.478;2023-03-05T13:31:58;5.80;54.80
44121;DHT22;29783;52.504;13.478;2023-03-05T13:34:29;6.10;54.80
44121;DHT22;29783;52.504;13.478;2023-03-05T13:37:03;6.40;54.60
44121;DHT22;29783;52.504;13.478;2023-03-05T13:39:29;6.40;53.60
44121;DHT22;29783;52.504;13.478;2023-03-05T13:41:58;6.40;53.90
44121;DHT22;29783;52.504;13.478;2023-03-05T13:44:24;6.40;52.00
44121;DHT22;29783;52.504;13.478;2023-03-05T13:46:50;6.10;53.00
44121;DHT22;29783;52.504;13.478;2023-03-05T13:51:42;6.30;55.30
44121;DHT22;29783;52.504;13.478;2023-03-05T13:54:08;6.30;55.40
44121;DHT22;29783;52.504;13.478;2023-03-05T13:56:46;5.90;56.60
44121;DHT22;29783;52.504;13.478;2023-03-05T13:59:17;5.80;57.20
44121;DHT22;29783;52.504;13.478;2023-03-05T14:01:43;5.50;57.70
44121;DHT22;29783;52.504;13.478;2023-03-05T14:06:40;5.10;59.50
44121;DHT22;29783;52.504;13.478;2023-03-05T14:09:15;4.90;60.20
44121;DHT22;29783;52.504;13.478;2023-03-05T14:11:54;4.80;59.30
44121;DHT22;29783;52.504;13.478;2023-03-05T14:14:21;4.70;59.10
44121;DHT22;29783;52.504;13.478;2023-03-05T14:16:47;4.60;59.30
44121;DHT22;29783;52.504;13.478;2023-03-05T14:21:59;4.40;59.70
44121;DHT22;29783;52.504;13.478;2023-03-05T14:24:25;4.40;58.40
44121;DHT22;29783;52.504;13.478;2023-03-05T14:26:55;4.40;56.80
44121;DHT22;29783;52.504;13.478;2023-03-05T14:29:22;4.50;57.50
44121;DHT22;29783;52.504;13.478;2023-03-05T14:34:19;4.50;56.70
44121;DHT22;29783;52.504;13.478;2023-03-05T14:36:49;4.60;56.90
44121;DHT22;29783;52.504;13.478;2023-03-05T14:39:28;4.80;59.10
44121;DHT22;29783;52.504;13.478;2023-03-05T14:41:55;4.80;59.40
44121;DHT22;29783;52.504;13.478;2023-03-05T14:44:37;4.70;59.40
44121;DHT22;29783;52.504;13.478;2023-03-05T14:50:27;4.50;58.80
44121;DHT22;29783;52.504;13.478;2023-03-05T14:52:56;4.40;59.20
44121;DHT22;29783;52.504;13.478;2023-03-05T14:55:24;4.30;59.80
44121;DHT22;29783;52.504;13.478;2023-03-05T14:57:57;4.30;60.20
44121;DHT22;29783;52.504;13.478;2023-03-05T15:00:24;4.30;60.30
44121;DHT22;29783;52.504;13.478;2023-03-05T15:02:53;4.30;60.30
44121;DHT22;29783;52.504;13.478;2023-03-05T15:05:19;4.30;60.50
44121;DHT22;29783;52.504;13.478;2023-03-05T15:07:44;4.30;60.00
44121;DHT22;29783;52.504;13.478;2023-03-05T15:10:13;4.40;59.60
44121;DHT22;29783;52.504;13.478;2023-03-05T15:12:42;4.40;59.50
44121;DHT22;29783;52.504;13.478;2023-03-05T15:15:10;4.30;59.10
44121;DHT22;29783;52.504;13.478;2023-03-05T15:17:36;4.30;59.30
44121;DHT22;29783;52.504;13.478;2023-03-05T15:20:03;4.30;59.50
44121;DHT22;29783;52.504;13.478;2023-03-05T15:22:34;4.20;60.20
44121;DHT22;29783;52.504;13.478;2023-03-05T15:25:00;4.20;60.50
44121;DHT22;29783;52.504;13.478;2023-03-05T15:27:26;4.10;60.90
44121;DHT22;29783;52.504;13.478;2023-03-05T15:29:52;4.00;61.40
44121;DHT22;29783;52.504;13.478;2023-03-05T15:32:17;3.90;62.10
44121;DHT22;29783;52.504;13.478;2023-03-05T15:34:43;3.90;62.20
44121;DHT22;29783;52.504;13.478;2023-03-05T15:37:11;3.80;62.10
44121;DHT22;29783;52.504;13.478;2023-03-05T15:39:37;3.80;63.00
44121;DHT22;29783;52.504;13.478;2023-03-05T15:42:03;3.90;63.50
44121;DHT22;29783;52.504;13.478;2023-03-05T15:44:29;4.00;62.90
44121;DHT22;29783;52.504;13.478;2023-03-05T15:46:57;3.80;63.60
44121;DHT22;29783;52.504;13.478;2023-03-05T15:49:23;3.80;64.20
44121;DHT22;29783;52.504;13.478;2023-03-05T15:51:50;3.80;64.30
44121;DHT22;29783;52.504;13.478;2023-03-05T15:54:19;3.80;64.10
44121;DHT22;29783;52.504;13.478;2023-03-05T15:56:45;3.80;64.10
44121;DHT22;29783;52.504;13.478;2023-03-05T15:59:11;3.80;64.50
44121;DHT22;29783;52.504;13.478;2023-03-05T16:01:37;3.70;64.70
44121;DHT22;29783;52.504;13.478;2023-03-05T16:04:03;3.60;64.80
44121;DHT22;29783;52.504;13.478;2023-03-05T16:06:29;3.60;64.90
44121;DHT22;29783;52.504;13.478;2023-03-05T16:09:03;3.70;64.30
44121;DHT22;29783;52.504;13.478;2023-03-05T16:11:32;3.50;64.60
44121;DHT22;29783;52.504;13.478;2023-03-05T16:14:03;3.60;64.60
44121;DHT22;29783;52.504;13.478;2023-03-05T16:16:29;3.60;64.20
44121;DHT22;29783;52.504;13.478;2023-03-05T16:18:59;3.60;64.60
44121;DHT22;29783;52.504;13.478;2023-03-05T16:21:26;3.60;64.70
44121;DHT22;29783;52.504;13.478;2023-03-05T16:23:52;3.50;65.50
44121;DHT22;29783;52.504;13.478;2023-03-05T16:26:18;3.50;65.70
44121;DHT22;29783;52.504;13.478;2023-03-05T16:28:43;3.40;66.20
44121;DHT22;29783;52.504;13.478;2023-03-05T16:31:09;3.40;66.70
44121;DHT22;29783;52.504;13.478;2023-03-05T16:33:35;3.40;66.60
44121;DHT22;29783;52.504;13.478;2023-03-05T16:38:38;3.30;67.30
44121;DHT22;29783;52.504;13.478;2023-03-05T16:41:04;3.10;67.50
44121;DHT22;29783;52.504;13.478;2023-03-05T16:43:29;3.20;67.10
44121;DHT22;29783;52.504;13.478;2023-03-05T16:45:55;3.20;67.50
44121;DHT22;29783;52.504;13.478;2023-03-05T16:48:21;3.20;67.70
44121;DHT22;29783;52.504;13.478;2023-03-05T16:50:46;3.20;67.10
44121;DHT22;29783;52.504;13.478;2023-03-05T16:53:12;3.20;67.40
44121;DHT22;29783;52.504;13.478;2023-03-05T16:55:37;3.10;67.50
44121;DHT22;29783;52.504;13.478;2023-03-05T16:58:03;3.20;67.40
44121;DHT22;29783;52.504;13.478;2023-03-05T17:00:29;3.10;67.20
44121;DHT22;29783;52.504;13.478;2023-03-05T17:02:55;3.00;67.50
44121;DHT22;29783;52.504;13.478;2023-03-05T17:05:21;3.10;67.40
44121;DHT22;29783;52.504;13.478;2023-03-05T17:07:47;3.10;67.70
44121;DHT22;29783;52.504;13.478;2023-03-05T17:10:12;3.00;68.00
44121;DHT22;29783;52.504;13.478;2023-03-05T17:12:38;3.00;68.10
44121;DHT22;29783;52.504;13.478;2023-03-05T17:15:05;3.10;68.10
44121;DHT22;29783;52.504;13.478;2023-03-05T17:17:31;3.10;68.10